createdAt,value
2024-02-27T00:01:00.778Z,12.52
2024-02-27T00:06:23.053Z,9.90
2024-02-27T00:11:26.887Z,11.70
2024-02-27T00:16:29.141Z,12.20
2024-02-27T00:21:31.206Z,5.82
2024-02-27T00:26:34.778Z,7.55
2024-02-27T00:31:36.907Z,7.70
2024-02-27T00:37:43.288Z,6.88
2024-02-27T00:43:36.640Z,9.23
2024-02-27T00:48:40.215Z,9.00
2024-02-27T00:53:42.835Z,15.05
2024-02-27T00:58:45.052Z,13.88
2024-02-27T01:03:48.714Z,8.48
2024-02-27T01:08:50.812Z,12.57
2024-02-27T01:13:52.874Z,14.52
2024-02-27T01:18:56.405Z,16.58
2024-02-27T01:23:59.468Z,20.60
2024-02-27T01:29:01.693Z,7.93
2024-02-27T01:34:05.497Z,13.88
2024-02-27T01:39:09.316Z,11.18
2024-02-27T01:44:11.447Z,12.18
2024-02-27T01:49:15.946Z,8.57
2024-02-27T01:54:20.885Z,9.52
2024-02-27T01:59:23.302Z,10.25
2024-02-27T02:04:28.137Z,11.68
2024-02-27T02:09:30.629Z,9.40
2024-02-27T02:14:32.933Z,10.20
2024-02-27T02:19:36.335Z,8.27
2024-02-27T02:24:40.298Z,12.80
2024-02-27T02:29:42.361Z,15.13
2024-02-27T02:34:44.482Z,13.77
2024-02-27T02:39:48.067Z,4.88
2024-02-27T02:44:50.136Z,7.07
2024-02-27T02:49:52.382Z,4.10
2024-02-27T02:54:56.008Z,10.10
2024-02-27T02:59:58.278Z,5.20
2024-02-27T03:05:00.377Z,6.13
2024-02-27T03:10:04.707Z,5.55
2024-02-27T03:15:07.434Z,5.95
2024-02-27T03:20:11.466Z,7.43
2024-02-27T03:25:15.124Z,4.47
2024-02-27T03:30:19.938Z,5.47
2024-02-27T03:35:23.183Z,5.28
2024-02-27T03:40:26.567Z,4.13
2024-02-27T03:45:28.647Z,6.15
2024-02-27T03:50:30.737Z,6.50
2024-02-27T03:55:34.400Z,8.18
2024-02-27T04:00:36.753Z,6.32
2024-02-27T04:05:38.992Z,8.02
2024-02-27T04:10:42.620Z,6.90
2024-02-27T04:15:47.701Z,7.60
2024-02-27T04:20:50.310Z,14.45
2024-02-27T04:25:53.869Z,12.98
2024-02-27T04:30:56.065Z,16.08
2024-02-27T04:35:58.212Z,12.77
2024-02-27T04:41:01.697Z,17.42
2024-02-27T04:46:03.898Z,14.68
2024-02-27T04:51:07.605Z,16.45
2024-02-27T04:56:11.114Z,14.40
2024-02-27T05:01:14.967Z,10.95
2024-02-27T05:06:17.253Z,6.93
2024-02-27T05:11:20.654Z,9.05
2024-02-27T05:16:22.919Z,9.52
2024-02-27T05:21:25.016Z,9.27
2024-02-27T05:26:28.483Z,8.88
2024-02-27T05:31:31.831Z,6.60
2024-02-27T05:36:34.476Z,6.65
2024-02-27T05:41:37.824Z,5.65
2024-02-27T05:46:40.029Z,6.90
2024-02-27T05:51:43.024Z,5.75
2024-02-27T05:56:46.813Z,5.35
2024-02-27T06:01:48.867Z,6.05
2024-02-27T06:06:51.103Z,7.40
2024-02-27T06:11:54.667Z,6.70
2024-02-27T06:16:57.164Z,5.75
2024-02-27T06:22:11.643Z,15.55
2024-02-27T06:27:15.313Z,15.95
2024-02-27T06:32:17.556Z,70.70
2024-02-27T06:37:20.241Z,19.00
2024-02-27T06:42:24.683Z,15.63
2024-02-27T06:47:28.204Z,16.75
2024-02-27T06:52:30.297Z,12.93
2024-02-27T06:57:33.914Z,8.18
2024-02-27T07:02:36.093Z,13.75
2024-02-27T07:07:38.246Z,11.63
2024-02-27T07:12:43.353Z,17.98
2024-02-27T07:17:45.774Z,15.52
2024-02-27T07:22:49.655Z,14.85
2024-02-27T07:27:53.408Z,14.60
2024-02-27T07:32:55.840Z,17.77
2024-02-27T07:37:58.077Z,17.52
2024-02-27T07:43:02.504Z,19.38
2024-02-27T07:48:05.686Z,16.15
2024-02-27T07:53:07.962Z,13.85
2024-02-27T07:58:11.702Z,19.05
2024-02-27T08:03:14.009Z,15.00
2024-02-27T08:13:23.860Z,15.02
2024-02-27T08:18:27.025Z,12.70
2024-02-27T08:23:30.197Z,24.90
2024-02-27T08:28:33.651Z,17.83
2024-02-27T08:33:36.023Z,21.30
2024-02-27T08:43:44.097Z,18.17
2024-02-27T08:48:46.837Z,18.08
2024-02-27T08:53:49.329Z,17.30
2024-02-27T08:58:52.688Z,15.98
2024-02-27T09:03:54.832Z,17.08
2024-02-27T09:08:57.161Z,15.65
2024-02-27T09:14:00.740Z,18.92
2024-02-27T09:19:03.167Z,11.73
2024-02-27T09:29:09.043Z,10.63
2024-02-27T09:34:11.326Z,10.75
2024-02-27T09:44:17.074Z,12.75
2024-02-27T09:49:32.633Z,14.43
2024-02-27T09:54:39.542Z,9.15
2024-02-27T09:59:43.217Z,11.00
2024-02-27T10:04:46.205Z,7.38
2024-02-27T10:09:48.405Z,7.28
2024-02-27T10:19:54.483Z,9.75
2024-02-27T10:25:05.785Z,9.45
2024-02-27T10:30:11.657Z,6.38
2024-02-27T10:35:15.756Z,5.70
2024-02-27T10:40:20.099Z,6.57
2024-02-27T10:45:24.627Z,6.30
2024-02-27T10:50:27.831Z,5.95
2024-02-27T10:55:30.689Z,5.70
2024-02-27T11:00:34.637Z,5.30
2024-02-27T11:05:38.846Z,7.72
2024-02-27T11:10:41.166Z,5.68
2024-02-27T11:15:47.947Z,7.63
2024-02-27T11:20:50.855Z,6.72
2024-02-27T11:25:53.552Z,5.55
2024-02-27T11:30:57.403Z,5.70
2024-02-27T11:36:01.202Z,7.95
2024-02-27T11:41:05.140Z,7.65
2024-02-27T11:46:36.934Z,5.78
2024-02-27T11:51:39.196Z,8.35
2024-02-27T11:56:44.817Z,6.50
2024-02-27T12:02:02.269Z,6.97
2024-02-27T12:07:04.786Z,6.70
2024-02-27T12:12:07.620Z,9.30
2024-02-27T12:17:11.042Z,8.52
2024-02-27T12:22:13.461Z,10.57
2024-02-27T12:27:15.951Z,5.55
2024-02-27T12:32:20.085Z,7.18
2024-02-27T12:37:22.171Z,6.63
2024-02-27T12:42:24.604Z,5.70
2024-02-27T12:47:28.232Z,7.72
2024-02-27T12:52:30.610Z,9.45
2024-02-27T12:57:32.972Z,8.65
2024-02-27T13:02:36.473Z,7.38
2024-02-27T13:07:40.204Z,7.47
2024-02-27T13:12:42.448Z,7.72
2024-02-27T13:17:46.142Z,6.95
2024-02-27T13:22:50.525Z,5.88
2024-02-27T13:27:53.876Z,9.50
2024-02-27T13:32:57.768Z,6.40
2024-02-27T13:37:59.927Z,9.18
2024-02-27T13:43:03.496Z,8.52
2024-02-27T13:48:10.465Z,8.23
2024-02-27T13:53:14.397Z,14.80
2024-02-27T13:58:16.614Z,9.60
2024-02-27T14:03:20.209Z,10.13
2024-02-27T14:08:22.536Z,9.20
2024-02-27T14:13:24.646Z,6.18
2024-02-27T14:18:28.316Z,7.13
2024-02-27T14:23:30.679Z,10.00
2024-02-27T14:28:32.803Z,7.88
2024-02-27T14:38:38.577Z,8.93
2024-02-27T14:43:40.710Z,8.60
2024-02-27T14:48:44.241Z,7.72
2024-02-27T14:53:46.361Z,9.85
2024-02-27T14:58:48.385Z,9.52
2024-02-27T15:03:52.022Z,9.35
2024-02-27T15:08:54.178Z,10.98
2024-02-27T15:13:56.336Z,8.43
2024-02-27T15:24:02.425Z,8.25
2024-02-27T15:29:04.537Z,11.70
2024-02-27T15:34:08.194Z,8.48
2024-02-27T15:39:10.354Z,8.52
2024-02-27T15:44:17.624Z,10.13
2024-02-27T15:49:25.056Z,5.72
2024-02-27T15:54:27.351Z,8.77
2024-02-27T16:04:41.515Z,16.25
2024-02-27T16:09:43.823Z,14.52
2024-02-27T16:19:50.189Z,8.85
2024-02-27T16:24:52.589Z,9.43
2024-02-27T16:29:54.705Z,7.45
2024-02-27T16:34:58.278Z,19.40
2024-02-27T16:40:00.621Z,14.45
2024-02-27T16:50:07.257Z,11.88
2024-02-27T16:55:11.690Z,14.20
2024-02-27T17:00:14.498Z,50.92
2024-02-27T17:05:17.989Z,42.80
2024-02-27T17:10:20.165Z,27.52
2024-02-27T17:15:24.115Z,16.75
2024-02-27T17:20:27.590Z,14.43
2024-02-27T17:25:29.675Z,14.27
2024-02-27T17:30:31.780Z,10.10
2024-02-27T17:35:35.861Z,12.75
2024-02-27T17:40:37.972Z,12.20
2024-02-27T17:45:40.157Z,14.45
2024-02-27T17:50:44.033Z,14.13
2024-02-27T17:55:46.527Z,15.65
2024-02-27T18:00:48.958Z,12.32
2024-02-27T18:05:53.905Z,10.90
2024-02-27T18:10:56.106Z,13.32
2024-02-27T18:15:58.774Z,14.43
2024-02-27T18:26:05.522Z,8.07
2024-02-27T18:31:08.757Z,8.70
2024-02-27T18:36:12.392Z,9.50
2024-02-27T18:41:14.679Z,8.95
2024-02-27T18:46:17.731Z,8.35
2024-02-27T18:51:21.361Z,7.38
2024-02-27T18:56:23.432Z,12.00
2024-02-27T19:01:25.698Z,14.13
2024-02-27T19:06:29.397Z,9.00
2024-02-27T19:11:31.672Z,10.77
2024-02-27T19:16:33.926Z,9.45
2024-02-27T19:21:37.482Z,9.05
2024-02-27T19:26:39.677Z,12.65
2024-02-27T19:31:41.889Z,12.30
2024-02-27T19:36:45.585Z,10.63
2024-02-27T19:41:47.875Z,9.00
2024-02-27T19:46:50.086Z,8.77
2024-02-27T19:51:53.620Z,10.90
2024-02-27T19:56:55.897Z,9.43
2024-02-27T20:01:58.617Z,13.13
2024-02-27T20:12:04.387Z,11.48
2024-02-27T20:17:06.671Z,10.73
2024-02-27T20:22:10.217Z,9.60
2024-02-27T20:27:12.563Z,7.75
2024-02-27T20:32:14.717Z,8.38
2024-02-27T20:37:18.208Z,7.88
2024-02-27T20:42:20.324Z,8.77
2024-02-27T20:47:22.493Z,10.90
2024-02-27T20:52:25.952Z,8.07
2024-02-27T20:57:28.145Z,9.18
2024-02-27T21:02:32.548Z,10.55
2024-02-27T21:07:36.509Z,7.50
2024-02-27T21:12:41.879Z,8.20
2024-02-27T21:17:44.115Z,11.25
2024-02-27T21:22:47.610Z,9.88
2024-02-27T21:27:53.886Z,9.00
2024-02-27T21:32:56.164Z,7.80
2024-02-27T21:37:59.673Z,8.70
2024-02-27T21:43:02.044Z,7.22
2024-02-27T21:48:04.861Z,9.45
2024-02-27T21:53:08.441Z,10.13
2024-02-27T21:58:10.823Z,11.95
2024-02-27T22:03:13.361Z,7.82
2024-02-27T22:08:17.068Z,12.05
2024-02-27T22:13:19.165Z,9.80
2024-02-27T22:18:21.413Z,11.05
2024-02-27T22:23:24.930Z,13.30
2024-02-27T22:28:26.960Z,15.23
2024-02-27T22:33:29.230Z,18.45
2024-02-27T22:38:32.825Z,24.83
2024-02-27T22:43:34.856Z,19.77
2024-02-27T22:48:37.039Z,25.20
2024-02-27T22:53:40.693Z,29.25
2024-02-27T22:58:42.782Z,28.48
2024-02-27T23:03:44.913Z,25.30
2024-02-27T23:08:48.493Z,26.33
2024-02-27T23:13:50.579Z,27.27
2024-02-27T23:18:52.670Z,29.05
2024-02-27T23:23:56.612Z,26.80
2024-02-27T23:28:58.725Z,26.92
2024-02-27T23:34:01.005Z,21.38
2024-02-27T23:39:07.508Z,21.40
2024-02-27T23:44:09.664Z,26.02
2024-02-27T23:49:11.691Z,20.20
2024-02-27T23:54:15.101Z,19.10
2024-02-27T23:59:19.040Z,19.40
